Larkhall, United Kingdom
Current Conditions -  °F | °C
As of 1:50 AM on Friday 19 Dec 2014 (Local Time) from EGPF Reporting Station
Light Rain Light Rain  
Wind Chill: 30°   Ceiling: 2000
Heat Index: 41°   Visibility: 4mi
Dew Point: 37°   Wind: 29mph
Humidity: 87%   Direction: 250°WSW
Pressure: 29.5"   Gusts: 40mph
Location:  55.73°N, 3.97°W
Report Text: EGPF 190150Z AUTO 25025G35KT 7000 -RA FEW008/// BKN020/// BKN034/// //////TCU 05/03 Q0999 RERA
Loading
Personal Weather Stations






























Interactive Weather Map New forecast layout! Learn more

10-Day Weather Forecast

Advertisements
Track Severe Weather on mobile